Iacsonvilla, FL (32257)

01:49 AM EDT die 30o August, anno 2015 (GMT -0400)
Brierwood/Mandarin | | Change Station
CLOSE
Current Station
Personal Weather Stations
Location: Jacksonville, FL
Elevation: 30 ft
Nearby Weather Stations

Elev 30 ft 30.21 °N, 81.60 °W | Updated 12 minutes ago

Pluvia
Pluvia
75.6 °F
Feels Like 75 °F
N
0.0
Ventus Variabilis Ventus from Magis Eurus quam Auster
Gusts 0.0 mph

Hodie
High -- | Low -- °F
--% Chance of Precip.
Yesterday
High -- | Low -- °F
Precip. -- in
7:02 AM 7:51 PM
Full, 100% visible
Pressio 30.07 in
Visibilitas 10.0 milia passuum
Clouds Few 2500 ft
Few 3100 ft
Index Caloris 75 °F
Frigus in quo Ros apparet 73 °F
Umor 92%
Rainfall 0.00 in
Snow Depth Not available.
UV 0.0 out of 12
Pollen 4.00 out of 12
Air Quality Not available.
Flu Activity Not available.
METAR KNIP 300453Z AUTO 12005KT 10SM -RA FEW025 FEW031 27/23 A3008 RMK AO2 RAE06B50 SLP181 P0000 T02720233 403170256 $
Pressio 30.07 in
Visibilitas 10.0 milia passuum
Clouds Few 2500 ft
Few 3100 ft
Index Caloris 75 °F
Frigus in quo Ros apparet 73 °F
Umor 92%
Rainfall 0.00 in
Snow Depth Not available.
UV 0.0 out of 12
Pollen 4.00 out of 12
Air Quality Not available.
Flu Activity Not available.
METAR KNIP 300453Z AUTO 12005KT 10SM -RA FEW025 FEW031 27/23 A3008 RMK AO2 RAE06B50 SLP181 P0000 T02720233 403170256 $

10-Day Weather Forecast

×

Almanac

Astronomy

Aug. 30, 2015 Rise Set
Actual Time
Civil Twilight
Nautical Twilight
Astronomical Twilight
Moon
Length Of Visible Light
Length of Day
Tomorrow will be .
, % of the Moon is Illuminated

Today's Extremes

State Highs State Lows

Community

WunderPhotos

Upload Photos

1,850,896 photos uploaded!

WunderBlogs® & News

Nearby

Air Quality

  Air Quality AQ Index Pollutant
Not available.

Snow Depth

Station Depth Elevation

Earthquake Activity

City Distance Mag. Time & Date
Minimum magnitude displayed is 2.5.

Coastal Water Temperatures

Locus Calor

Stations

Nearby Weather Stations

Station Location Temp Frigus Venti Frigus in quo Ros apparet Umor Ventus Precip. Elev Renovata Type